sensor_id;sensor_type;location;lat;lon;timestamp;P1;durP1;ratioP1;P2;durP2;ratioP2
51792;SDS011;37850;53.178;6.376;2022-10-31T00:00:42;16.90;;;9.23;;
51792;SDS011;37850;53.178;6.376;2022-10-31T00:03:08;16.88;;;8.95;;
51792;SDS011;37850;53.178;6.376;2022-10-31T00:05:34;19.98;;;9.75;;
51792;SDS011;37850;53.178;6.376;2022-10-31T00:07:59;18.35;;;9.25;;
51792;SDS011;37850;53.178;6.376;2022-10-31T00:10:25;18.20;;;9.38;;
51792;SDS011;37850;53.178;6.376;2022-10-31T00:12:51;23.42;;;10.43;;
51792;SDS011;37850;53.178;6.376;2022-10-31T00:15:16;19.33;;;10.68;;
51792;SDS011;37850;53.178;6.376;2022-10-31T00:17:42;22.25;;;11.02;;
51792;SDS011;37850;53.178;6.376;2022-10-31T00:20:08;24.95;;;10.55;;
51792;SDS011;37850;53.178;6.376;2022-10-31T00:22:34;22.45;;;11.23;;
51792;SDS011;37850;53.178;6.376;2022-10-31T00:24:59;20.33;;;11.32;;
51792;SDS011;37850;53.178;6.376;2022-10-31T00:27:25;24.55;;;12.27;;
51792;SDS011;37850;53.178;6.376;2022-10-31T00:29:51;20.08;;;10.65;;
51792;SDS011;37850;53.178;6.376;2022-10-31T00:32:16;22.65;;;12.05;;
51792;SDS011;37850;53.178;6.376;2022-10-31T00:34:42;22.02;;;12.18;;
51792;SDS011;37850;53.178;6.376;2022-10-31T00:37:08;22.70;;;12.45;;
51792;SDS011;37850;53.178;6.376;2022-10-31T00:39:33;22.52;;;13.45;;
51792;SDS011;37850;53.178;6.376;2022-10-31T00:41:59;22.17;;;11.77;;
51792;SDS011;37850;53.178;6.376;2022-10-31T00:44:25;22.17;;;12.60;;
51792;SDS011;37850;53.178;6.376;2022-10-31T00:46:50;22.08;;;12.90;;
51792;SDS011;37850;53.178;6.376;2022-10-31T00:49:16;22.58;;;13.45;;
51792;SDS011;37850;53.178;6.376;2022-10-31T00:51:42;21.80;;;12.98;;
51792;SDS011;37850;53.178;6.376;2022-10-31T00:54:07;27.33;;;13.57;;
51792;SDS011;37850;53.178;6.376;2022-10-31T00:56:33;22.90;;;13.85;;
51792;SDS011;37850;53.178;6.376;2022-10-31T00:58:59;23.98;;;13.23;;
51792;SDS011;37850;53.178;6.376;2022-10-31T01:01:24;24.67;;;13.05;;
51792;SDS011;37850;53.178;6.376;2022-10-31T01:03:50;25.65;;;14.43;;
51792;SDS011;37850;53.178;6.376;2022-10-31T01:06:16;24.13;;;13.82;;
51792;SDS011;37850;53.178;6.376;2022-10-31T01:08:42;23.98;;;13.40;;
51792;SDS011;37850;53.178;6.376;2022-10-31T01:11:10;26.92;;;13.52;;
51792;SDS011;37850;53.178;6.376;2022-10-31T01:13:38;26.92;;;14.40;;
51792;SDS011;37850;53.178;6.376;2022-10-31T01:16:04;24.67;;;13.88;;
51792;SDS011;37850;53.178;6.376;2022-10-31T01:18:31;24.15;;;13.50;;
51792;SDS011;37850;53.178;6.376;2022-10-31T01:21:07;25.58;;;13.90;;
51792;SDS011;37850;53.178;6.376;2022-10-31T01:23:38;23.58;;;14.43;;
51792;SDS011;37850;53.178;6.376;2022-10-31T01:26:18;24.02;;;13.90;;
51792;SDS011;37850;53.178;6.376;2022-10-31T01:28:49;22.87;;;13.93;;
51792;SDS011;37850;53.178;6.376;2022-10-31T01:31:18;25.98;;;14.30;;
51792;SDS011;37850;53.178;6.376;2022-10-31T01:33:46;21.02;;;13.07;;
51792;SDS011;37850;53.178;6.376;2022-10-31T01:36:21;28.08;;;13.82;;
51792;SDS011;37850;53.178;6.376;2022-10-31T01:38:56;27.42;;;13.50;;
51792;SDS011;37850;53.178;6.376;2022-10-31T01:41:25;27.23;;;13.70;;
51792;SDS011;37850;53.178;6.376;2022-10-31T01:44:03;23.58;;;12.98;;
51792;SDS011;37850;53.178;6.376;2022-10-31T01:46:48;25.08;;;13.50;;
51792;SDS011;37850;53.178;6.376;2022-10-31T01:49:23;19.52;;;12.57;;
51792;SDS011;37850;53.178;6.376;2022-10-31T01:52:24;19.42;;;12.48;;
51792;SDS011;37850;53.178;6.376;2022-10-31T01:55:13;26.83;;;13.45;;
51792;SDS011;37850;53.178;6.376;2022-10-31T01:57:43;24.45;;;13.82;;
51792;SDS011;37850;53.178;6.376;2022-10-31T02:00:12;21.45;;;12.73;;
51792;SDS011;37850;53.178;6.376;2022-10-31T02:02:39;24.02;;;13.85;;
51792;SDS011;37850;53.178;6.376;2022-10-31T02:05:07;23.40;;;12.60;;
51792;SDS011;37850;53.178;6.376;2022-10-31T02:07:38;23.75;;;13.40;;
51792;SDS011;37850;53.178;6.376;2022-10-31T02:12:34;19.60;;;13.00;;
51792;SDS011;37850;53.178;6.376;2022-10-31T02:15:01;28.48;;;13.10;;
51792;SDS011;37850;53.178;6.376;2022-10-31T02:17:28;26.00;;;14.52;;
51792;SDS011;37850;53.178;6.376;2022-10-31T02:31:29;26.40;;;13.73;;
51792;SDS011;37850;53.178;6.376;2022-10-31T02:34:21;22.45;;;13.13;;
51792;SDS011;37850;53.178;6.376;2022-10-31T02:37:06;22.38;;;13.63;;
51792;SDS011;37850;53.178;6.376;2022-10-31T02:39:48;25.08;;;13.68;;
51792;SDS011;37850;53.178;6.376;2022-10-31T02:45:32;23.92;;;13.15;;
51792;SDS011;37850;53.178;6.376;2022-10-31T02:48:08;25.27;;;13.27;;
51792;SDS011;37850;53.178;6.376;2022-10-31T02:50:44;21.70;;;13.25;;
51792;SDS011;37850;53.178;6.376;2022-10-31T02:53:15;22.77;;;12.88;;
51792;SDS011;37850;53.178;6.376;2022-10-31T02:58:11;23.52;;;13.27;;
51792;SDS011;37850;53.178;6.376;2022-10-31T03:00:47;25.90;;;13.20;;
51792;SDS011;37850;53.178;6.376;2022-10-31T03:08:50;22.58;;;12.85;;
51792;SDS011;37850;53.178;6.376;2022-10-31T03:11:23;22.55;;;13.82;;
51792;SDS011;37850;53.178;6.376;2022-10-31T03:14:00;22.42;;;13.35;;
51792;SDS011;37850;53.178;6.376;2022-10-31T03:16:47;22.52;;;13.13;;
51792;SDS011;37850;53.178;6.376;2022-10-31T03:21:55;21.13;;;12.68;;
51792;SDS011;37850;53.178;6.376;2022-10-31T03:24:48;19.73;;;12.75;;
51792;SDS011;37850;53.178;6.376;2022-10-31T03:27:15;18.70;;;12.88;;
51792;SDS011;37850;53.178;6.376;2022-10-31T03:29:45;24.83;;;13.27;;
51792;SDS011;37850;53.178;6.376;2022-10-31T03:32:20;18.50;;;12.40;;
51792;SDS011;37850;53.178;6.376;2022-10-31T03:34:51;22.40;;;13.35;;
51792;SDS011;37850;53.178;6.376;2022-10-31T03:37:21;18.67;;;12.83;;
51792;SDS011;37850;53.178;6.376;2022-10-31T03:39:49;26.25;;;14.05;;
51792;SDS011;37850;53.178;6.376;2022-10-31T03:42:16;21.42;;;13.98;;
51792;SDS011;37850;53.178;6.376;2022-10-31T03:44:48;23.05;;;13.65;;
51792;SDS011;37850;53.178;6.376;2022-10-31T03:47:24;23.88;;;13.70;;
51792;SDS011;37850;53.178;6.376;2022-10-31T03:49:50;25.38;;;13.57;;
51792;SDS011;37850;53.178;6.376;2022-10-31T03:52:19;20.83;;;12.85;;
51792;SDS011;37850;53.178;6.376;2022-10-31T03:54:54;24.67;;;13.18;;
51792;SDS011;37850;53.178;6.376;2022-10-31T04:00:19;23.92;;;14.23;;
51792;SDS011;37850;53.178;6.376;2022-10-31T04:03:27;25.85;;;13.60;;
51792;SDS011;37850;53.178;6.376;2022-10-31T04:05:37;23.23;;;13.15;;
51792;SDS011;37850;53.178;6.376;2022-10-31T04:08:07;25.50;;;12.93;;
51792;SDS011;37850;53.178;6.376;2022-10-31T04:10:36;20.17;;;12.43;;
51792;SDS011;37850;53.178;6.376;2022-10-31T04:13:06;24.13;;;13.05;;
51792;SDS011;37850;53.178;6.376;2022-10-31T04:18:02;21.30;;;11.80;;
51792;SDS011;37850;53.178;6.376;2022-10-31T04:20:34;20.60;;;11.88;;
51792;SDS011;37850;53.178;6.376;2022-10-31T04:23:02;20.02;;;12.32;;
51792;SDS011;37850;53.178;6.376;2022-10-31T04:25:28;23.35;;;12.77;;
51792;SDS011;37850;53.178;6.376;2022-10-31T04:27:54;18.35;;;11.55;;
51792;SDS011;37850;53.178;6.376;2022-10-31T04:30:20;19.35;;;12.32;;
51792;SDS011;37850;53.178;6.376;2022-10-31T04:32:46;20.05;;;12.20;;
51792;SDS011;37850;53.178;6.376;2022-10-31T04:35:12;20.92;;;11.60;;
51792;SDS011;37850;53.178;6.376;2022-10-31T04:37:38;20.77;;;11.52;;
51792;SDS011;37850;53.178;6.376;2022-10-31T04:40:04;19.95;;;12.13;;
51792;SDS011;37850;53.178;6.376;2022-10-31T04:42:30;19.65;;;11.57;;
51792;SDS011;37850;53.178;6.376;2022-10-31T04:44:56;18.55;;;11.90;;
51792;SDS011;37850;53.178;6.376;2022-10-31T04:47:21;20.42;;;12.02;;
51792;SDS011;37850;53.178;6.376;2022-10-31T04:49:47;22.85;;;13.20;;
51792;SDS011;37850;53.178;6.376;2022-10-31T04:52:13;20.42;;;12.30;;
51792;SDS011;37850;53.178;6.376;2022-10-31T04:54:39;20.40;;;12.52;;
51792;SDS011;37850;53.178;6.376;2022-10-31T04:57:04;24.52;;;12.80;;
51792;SDS011;37850;53.178;6.376;2022-10-31T04:59:30;19.45;;;11.80;;
51792;SDS011;37850;53.178;6.376;2022-10-31T05:01:56;23.20;;;12.82;;
51792;SDS011;37850;53.178;6.376;2022-10-31T05:04:21;21.33;;;13.13;;
51792;SDS011;37850;53.178;6.376;2022-10-31T05:06:47;18.55;;;12.07;;
51792;SDS011;37850;53.178;6.376;2022-10-31T05:09:13;19.83;;;12.73;;
51792;SDS011;37850;53.178;6.376;2022-10-31T05:11:39;18.08;;;11.80;;
51792;SDS011;37850;53.178;6.376;2022-10-31T05:14:04;20.77;;;13.18;;
51792;SDS011;37850;53.178;6.376;2022-10-31T05:16:30;19.65;;;13.13;;
51792;SDS011;37850;53.178;6.376;2022-10-31T05:18:56;23.15;;;12.68;;
51792;SDS011;37850;53.178;6.376;2022-10-31T05:21:22;24.58;;;13.75;;
51792;SDS011;37850;53.178;6.376;2022-10-31T05:23:47;22.52;;;13.02;;
51792;SDS011;37850;53.178;6.376;2022-10-31T05:26:13;21.30;;;13.05;;
51792;SDS011;37850;53.178;6.376;2022-10-31T05:28:38;22.80;;;12.82;;
51792;SDS011;37850;53.178;6.376;2022-10-31T05:31:04;22.92;;;13.55;;
51792;SDS011;37850;53.178;6.376;2022-10-31T05:33:30;20.33;;;14.15;;
51792;SDS011;37850;53.178;6.376;2022-10-31T05:35:55;24.70;;;13.50;;
51792;SDS011;37850;53.178;6.376;2022-10-31T05:38:21;22.45;;;13.15;;
51792;SDS011;37850;53.178;6.376;2022-10-31T05:40:47;25.02;;;14.38;;
51792;SDS011;37850;53.178;6.376;2022-10-31T05:43:13;19.90;;;13.50;;
51792;SDS011;37850;53.178;6.376;2022-10-31T05:45:38;23.40;;;14.13;;
51792;SDS011;37850;53.178;6.376;2022-10-31T05:48:07;22.55;;;13.77;;
51792;SDS011;37850;53.178;6.376;2022-10-31T05:50:33;25.30;;;15.13;;
51792;SDS011;37850;53.178;6.376;2022-10-31T05:53:05;22.38;;;14.02;;
51792;SDS011;37850;53.178;6.376;2022-10-31T05:55:31;21.63;;;14.35;;
51792;SDS011;37850;53.178;6.376;2022-10-31T05:57:58;28.33;;;14.52;;
51792;SDS011;37850;53.178;6.376;2022-10-31T06:00:24;27.77;;;15.70;;
51792;SDS011;37850;53.178;6.376;2022-10-31T06:03:00;22.52;;;14.75;;
51792;SDS011;37850;53.178;6.376;2022-10-31T06:05:28;23.55;;;14.35;;
51792;SDS011;37850;53.178;6.376;2022-10-31T06:07:54;25.50;;;14.13;;
51792;SDS011;37850;53.178;6.376;2022-10-31T06:10:21;22.27;;;14.10;;
51792;SDS011;37850;53.178;6.376;2022-10-31T06:12:47;23.05;;;14.20;;
51792;SDS011;37850;53.178;6.376;2022-10-31T06:15:13;24.02;;;14.05;;
51792;SDS011;37850;53.178;6.376;2022-10-31T06:17:39;24.10;;;14.95;;
51792;SDS011;37850;53.178;6.376;2022-10-31T06:20:05;22.80;;;13.40;;
51792;SDS011;37850;53.178;6.376;2022-10-31T06:22:32;24.08;;;14.57;;
51792;SDS011;37850;53.178;6.376;2022-10-31T06:24:58;20.23;;;13.80;;
51792;SDS011;37850;53.178;6.376;2022-10-31T06:27:24;26.23;;;14.52;;
51792;SDS011;37850;53.178;6.376;2022-10-31T06:29:50;24.02;;;14.55;;
51792;SDS011;37850;53.178;6.376;2022-10-31T06:32:15;23.00;;;14.02;;
51792;SDS011;37850;53.178;6.376;2022-10-31T06:34:42;23.52;;;14.25;;
51792;SDS011;37850;53.178;6.376;2022-10-31T06:37:09;26.15;;;15.43;;
51792;SDS011;37850;53.178;6.376;2022-10-31T06:39:35;25.65;;;14.70;;
51792;SDS011;37850;53.178;6.376;2022-10-31T06:42:01;30.00;;;15.48;;
51792;SDS011;37850;53.178;6.376;2022-10-31T06:44:28;24.95;;;14.65;;
51792;SDS011;37850;53.178;6.376;2022-10-31T06:46:53;26.83;;;14.82;;
51792;SDS011;37850;53.178;6.376;2022-10-31T06:49:19;22.10;;;13.95;;
51792;SDS011;37850;53.178;6.376;2022-10-31T06:51:48;27.85;;;15.57;;
51792;SDS011;37850;53.178;6.376;2022-10-31T06:54:15;22.33;;;14.55;;
51792;SDS011;37850;53.178;6.376;2022-10-31T06:56:41;25.40;;;16.25;;
51792;SDS011;37850;53.178;6.376;2022-10-31T06:59:07;25.13;;;14.98;;
51792;SDS011;37850;53.178;6.376;2022-10-31T07:01:33;22.20;;;14.07;;
51792;SDS011;37850;53.178;6.376;2022-10-31T07:03:58;23.15;;;14.40;;
51792;SDS011;37850;53.178;6.376;2022-10-31T07:06:24;21.13;;;13.50;;
51792;SDS011;37850;53.178;6.376;2022-10-31T07:08:50;25.75;;;14.57;;
51792;SDS011;37850;53.178;6.376;2022-10-31T07:11:15;24.80;;;15.07;;
51792;SDS011;37850;53.178;6.376;2022-10-31T07:13:41;25.20;;;15.65;;
51792;SDS011;37850;53.178;6.376;2022-10-31T07:16:07;26.95;;;16.27;;
51792;SDS011;37850;53.178;6.376;2022-10-31T07:18:33;22.60;;;15.50;;
51792;SDS011;37850;53.178;6.376;2022-10-31T07:20:59;23.92;;;14.35;;
51792;SDS011;37850;53.178;6.376;2022-10-31T07:23:25;23.83;;;15.90;;
51792;SDS011;37850;53.178;6.376;2022-10-31T07:25:55;24.08;;;15.45;;
51792;SDS011;37850;53.178;6.376;2022-10-31T07:28:21;28.53;;;15.77;;
51792;SDS011;37850;53.178;6.376;2022-10-31T07:30:51;25.83;;;15.40;;
51792;SDS011;37850;53.178;6.376;2022-10-31T07:33:18;24.52;;;16.10;;
51792;SDS011;37850;53.178;6.376;2022-10-31T07:35:44;29.70;;;17.20;;
51792;SDS011;37850;53.178;6.376;2022-10-31T07:38:10;26.48;;;15.50;;
51792;SDS011;37850;53.178;6.376;2022-10-31T07:40:37;25.48;;;15.65;;
51792;SDS011;37850;53.178;6.376;2022-10-31T07:43:03;28.83;;;16.52;;
51792;SDS011;37850;53.178;6.376;2022-10-31T07:45:28;28.80;;;15.73;;
51792;SDS011;37850;53.178;6.376;2022-10-31T07:47:54;25.90;;;16.42;;
51792;SDS011;37850;53.178;6.376;2022-10-31T07:50:21;23.30;;;14.40;;
51792;SDS011;37850;53.178;6.376;2022-10-31T07:52:57;24.08;;;15.05;;
51792;SDS011;37850;53.178;6.376;2022-10-31T07:55:29;21.60;;;14.45;;
51792;SDS011;37850;53.178;6.376;2022-10-31T07:58:14;26.10;;;14.73;;
51792;SDS011;37850;53.178;6.376;2022-10-31T08:00:41;21.83;;;14.48;;
51792;SDS011;37850;53.178;6.376;2022-10-31T08:03:18;19.77;;;13.82;;
51792;SDS011;37850;53.178;6.376;2022-10-31T08:05:44;22.83;;;15.10;;
51792;SDS011;37850;53.178;6.376;2022-10-31T08:08:11;22.73;;;14.32;;
51792;SDS011;37850;53.178;6.376;2022-10-31T08:10:38;23.13;;;14.63;;
51792;SDS011;37850;53.178;6.376;2022-10-31T08:13:12;20.95;;;13.82;;
51792;SDS011;37850;53.178;6.376;2022-10-31T08:15:38;23.63;;;14.23;;
51792;SDS011;37850;53.178;6.376;2022-10-31T08:18:06;26.83;;;14.43;;
51792;SDS011;37850;53.178;6.376;2022-10-31T08:20:39;26.20;;;13.43;;
51792;SDS011;37850;53.178;6.376;2022-10-31T08:23:06;19.95;;;13.52;;
51792;SDS011;37850;53.178;6.376;2022-10-31T08:25:32;25.30;;;14.40;;
51792;SDS011;37850;53.178;6.376;2022-10-31T08:27:59;20.77;;;13.10;;
51792;SDS011;37850;53.178;6.376;2022-10-31T08:30:26;21.08;;;12.77;;
51792;SDS011;37850;53.178;6.376;2022-10-31T08:32:57;19.17;;;12.80;;
51792;SDS011;37850;53.178;6.376;2022-10-31T08:35:28;21.48;;;13.75;;
51792;SDS011;37850;53.178;6.376;2022-10-31T08:37:54;19.63;;;12.95;;
51792;SDS011;37850;53.178;6.376;2022-10-31T08:40:21;21.23;;;13.05;;
51792;SDS011;37850;53.178;6.376;2022-10-31T08:42:47;21.95;;;13.70;;
51792;SDS011;37850;53.178;6.376;2022-10-31T08:45:19;21.80;;;13.13;;
51792;SDS011;37850;53.178;6.376;2022-10-31T08:47:45;20.95;;;13.20;;
51792;SDS011;37850;53.178;6.376;2022-10-31T08:50:11;21.23;;;13.13;;
51792;SDS011;37850;53.178;6.376;2022-10-31T08:52:36;21.63;;;12.82;;
51792;SDS011;37850;53.178;6.376;2022-10-31T08:55:02;21.30;;;14.20;;
51792;SDS011;37850;53.178;6.376;2022-10-31T08:57:28;19.35;;;12.80;;
51792;SDS011;37850;53.178;6.376;2022-10-31T08:59:54;20.73;;;13.63;;
51792;SDS011;37850;53.178;6.376;2022-10-31T09:02:20;19.65;;;13.00;;
51792;SDS011;37850;53.178;6.376;2022-10-31T09:04:45;19.92;;;13.30;;
51792;SDS011;37850;53.178;6.376;2022-10-31T09:07:11;23.13;;;13.65;;
51792;SDS011;37850;53.178;6.376;2022-10-31T09:09:37;21.55;;;13.48;;
51792;SDS011;37850;53.178;6.376;2022-10-31T09:12:03;23.88;;;12.82;;
51792;SDS011;37850;53.178;6.376;2022-10-31T09:14:29;19.13;;;13.35;;
51792;SDS011;37850;53.178;6.376;2022-10-31T09:16:55;21.35;;;12.98;;
51792;SDS011;37850;53.178;6.376;2022-10-31T09:19:20;20.92;;;12.70;;
51792;SDS011;37850;53.178;6.376;2022-10-31T09:21:46;19.80;;;12.80;;
51792;SDS011;37850;53.178;6.376;2022-10-31T09:24:12;18.95;;;13.18;;
51792;SDS011;37850;53.178;6.376;2022-10-31T09:26:38;21.58;;;13.20;;
51792;SDS011;37850;53.178;6.376;2022-10-31T09:29:03;18.52;;;12.60;;
51792;SDS011;37850;53.178;6.376;2022-10-31T09:31:29;21.50;;;12.30;;
51792;SDS011;37850;53.178;6.376;2022-10-31T09:33:55;19.40;;;11.60;;
51792;SDS011;37850;53.178;6.376;2022-10-31T09:36:21;17.85;;;11.60;;
51792;SDS011;37850;53.178;6.376;2022-10-31T09:38:46;18.10;;;11.48;;
51792;SDS011;37850;53.178;6.376;2022-10-31T09:41:16;16.30;;;11.45;;
51792;SDS011;37850;53.178;6.376;2022-10-31T09:43:54;18.73;;;12.27;;
51792;SDS011;37850;53.178;6.376;2022-10-31T09:54:54;16.17;;;10.50;;
51792;SDS011;37850;53.178;6.376;2022-10-31T09:57:33;21.17;;;12.13;;
51792;SDS011;37850;53.178;6.376;2022-10-31T10:00:00;17.38;;;11.18;;
51792;SDS011;37850;53.178;6.376;2022-10-31T10:02:38;18.03;;;12.23;;
51792;SDS011;37850;53.178;6.376;2022-10-31T10:05:13;16.17;;;11.43;;
51792;SDS011;37850;53.178;6.376;2022-10-31T10:07:54;16.02;;;10.65;;
51792;SDS011;37850;53.178;6.376;2022-10-31T10:18:38;18.02;;;12.13;;
51792;SDS011;37850;53.178;6.376;2022-10-31T10:21:16;17.05;;;11.05;;
51792;SDS011;37850;53.178;6.376;2022-10-31T10:24:03;16.30;;;10.07;;
51792;SDS011;37850;53.178;6.376;2022-10-31T10:27:37;17.58;;;11.10;;
51792;SDS011;37850;53.178;6.376;2022-10-31T10:30:19;16.98;;;10.00;;
51792;SDS011;37850;53.178;6.376;2022-10-31T10:32:59;16.42;;;10.30;;
51792;SDS011;37850;53.178;6.376;2022-10-31T10:35:32;16.27;;;10.02;;
51792;SDS011;37850;53.178;6.376;2022-10-31T10:38:08;15.10;;;9.75;;
51792;SDS011;37850;53.178;6.376;2022-10-31T10:40:51;18.35;;;9.38;;
51792;SDS011;37850;53.178;6.376;2022-10-31T10:43:20;16.13;;;8.98;;
51792;SDS011;37850;53.178;6.376;2022-10-31T10:49:11;15.70;;;9.63;;
51792;SDS011;37850;53.178;6.376;2022-10-31T10:57:02;22.27;;;10.15;;
51792;SDS011;37850;53.178;6.376;2022-10-31T10:59:34;20.90;;;10.05;;
51792;SDS011;37850;53.178;6.376;2022-10-31T11:02:00;19.40;;;9.95;;
51792;SDS011;37850;53.178;6.376;2022-10-31T11:04:32;17.02;;;10.15;;
51792;SDS011;37850;53.178;6.376;2022-10-31T11:09:39;16.42;;;10.07;;
51792;SDS011;37850;53.178;6.376;2022-10-31T11:12:09;17.08;;;9.80;;
51792;SDS011;37850;53.178;6.376;2022-10-31T11:14:50;17.98;;;9.60;;
51792;SDS011;37850;53.178;6.376;2022-10-31T11:17:31;16.67;;;9.93;;
51792;SDS011;37850;53.178;6.376;2022-10-31T11:22:47;18.30;;;10.02;;
51792;SDS011;37850;53.178;6.376;2022-10-31T11:25:23;18.17;;;9.50;;
51792;SDS011;37850;53.178;6.376;2022-10-31T11:28:00;16.27;;;9.20;;
51792;SDS011;37850;53.178;6.376;2022-10-31T11:30:35;16.65;;;9.32;;
51792;SDS011;37850;53.178;6.376;2022-10-31T11:33:13;16.80;;;8.30;;
51792;SDS011;37850;53.178;6.376;2022-10-31T11:35:57;16.85;;;8.70;;
51792;SDS011;37850;53.178;6.376;2022-10-31T11:38:25;19.17;;;8.20;;
51792;SDS011;37850;53.178;6.376;2022-10-31T11:41:03;15.68;;;8.77;;
51792;SDS011;37850;53.178;6.376;2022-10-31T11:43:33;18.35;;;8.65;;
51792;SDS011;37850;53.178;6.376;2022-10-31T11:45:59;21.00;;;9.18;;
51792;SDS011;37850;53.178;6.376;2022-10-31T11:48:32;23.25;;;8.50;;
51792;SDS011;37850;53.178;6.376;2022-10-31T11:50:58;16.67;;;8.27;;
51792;SDS011;37850;53.178;6.376;2022-10-31T11:53:28;16.45;;;8.45;;
51792;SDS011;37850;53.178;6.376;2022-10-31T11:56:03;15.27;;;7.65;;
51792;SDS011;37850;53.178;6.376;2022-10-31T11:58:38;13.70;;;7.82;;
51792;SDS011;37850;53.178;6.376;2022-10-31T12:01:04;13.80;;;7.30;;
51792;SDS011;37850;53.178;6.376;2022-10-31T12:03:53;14.32;;;7.78;;
51792;SDS011;37850;53.178;6.376;2022-10-31T12:06:30;18.55;;;8.52;;
51792;SDS011;37850;53.178;6.376;2022-10-31T12:08:59;13.18;;;7.47;;
51792;SDS011;37850;53.178;6.376;2022-10-31T12:22:18;10.63;;;5.15;;
51792;SDS011;37850;53.178;6.376;2022-10-31T12:24:57;12.60;;;5.22;;
51792;SDS011;37850;53.178;6.376;2022-10-31T12:44:31;9.60;;;5.40;;
51792;SDS011;37850;53.178;6.376;2022-10-31T12:57:59;10.68;;;5.13;;
51792;SDS011;37850;53.178;6.376;2022-10-31T13:00:28;15.55;;;5.85;;
51792;SDS011;37850;53.178;6.376;2022-10-31T13:05:43;13.95;;;5.47;;
51792;SDS011;37850;53.178;6.376;2022-10-31T13:08:17;14.93;;;5.18;;
51792;SDS011;37850;53.178;6.376;2022-10-31T13:16:17;13.25;;;5.00;;
51792;SDS011;37850;53.178;6.376;2022-10-31T13:18:55;13.23;;;4.63;;
51792;SDS011;37850;53.178;6.376;2022-10-31T13:24:18;11.80;;;4.47;;
51792;SDS011;37850;53.178;6.376;2022-10-31T13:26:52;10.90;;;4.28;;
51792;SDS011;37850;53.178;6.376;2022-10-31T13:29:24;13.45;;;4.35;;
51792;SDS011;37850;53.178;6.376;2022-10-31T13:31:51;10.77;;;4.03;;
51792;SDS011;37850;53.178;6.376;2022-10-31T13:34:59;12.52;;;4.15;;
51792;SDS011;37850;53.178;6.376;2022-10-31T13:45:30;10.75;;;3.58;;
51792;SDS011;37850;53.178;6.376;2022-10-31T13:47:57;12.00;;;4.10;;
51792;SDS011;37850;53.178;6.376;2022-10-31T13:56:26;14.13;;;4.22;;
51792;SDS011;37850;53.178;6.376;2022-10-31T13:59:00;13.60;;;4.95;;
51792;SDS011;37850;53.178;6.376;2022-10-31T14:01:29;12.05;;;4.18;;
51792;SDS011;37850;53.178;6.376;2022-10-31T14:03:57;15.52;;;4.55;;
51792;SDS011;37850;53.178;6.376;2022-10-31T14:09:20;11.48;;;4.05;;
51792;SDS011;37850;53.178;6.376;2022-10-31T14:11:52;10.13;;;3.90;;
51792;SDS011;37850;53.178;6.376;2022-10-31T14:14:18;12.27;;;3.63;;
51792;SDS011;37850;53.178;6.376;2022-10-31T14:16:45;18.92;;;4.15;;
51792;SDS011;37850;53.178;6.376;2022-10-31T14:19:18;14.85;;;3.92;;
51792;SDS011;37850;53.178;6.376;2022-10-31T14:21:49;12.95;;;4.15;;
51792;SDS011;37850;53.178;6.376;2022-10-31T14:26:52;11.73;;;3.67;;
51792;SDS011;37850;53.178;6.376;2022-10-31T14:31:44;15.52;;;3.95;;
51792;SDS011;37850;53.178;6.376;2022-10-31T14:34:24;12.27;;;4.15;;
51792;SDS011;37850;53.178;6.376;2022-10-31T14:40:10;16.77;;;3.47;;
51792;SDS011;37850;53.178;6.376;2022-10-31T14:43:01;10.90;;;3.80;;
51792;SDS011;37850;53.178;6.376;2022-10-31T14:51:19;12.45;;;4.00;;
51792;SDS011;37850;53.178;6.376;2022-10-31T14:53:53;12.80;;;4.07;;
51792;SDS011;37850;53.178;6.376;2022-10-31T14:56:23;11.73;;;3.97;;
51792;SDS011;37850;53.178;6.376;2022-10-31T14:58:50;11.57;;;3.75;;
51792;SDS011;37850;53.178;6.376;2022-10-31T15:01:22;12.55;;;4.60;;
51792;SDS011;37850;53.178;6.376;2022-10-31T15:04:07;15.05;;;4.45;;
51792;SDS011;37850;53.178;6.376;2022-10-31T15:06:40;13.63;;;4.55;;
51792;SDS011;37850;53.178;6.376;2022-10-31T15:09:28;12.73;;;4.40;;
51792;SDS011;37850;53.178;6.376;2022-10-31T15:11:55;12.30;;;4.88;;
51792;SDS011;37850;53.178;6.376;2022-10-31T15:14:29;14.25;;;5.30;;
51792;SDS011;37850;53.178;6.376;2022-10-31T15:16:59;10.27;;;4.70;;
51792;SDS011;37850;53.178;6.376;2022-10-31T15:19:28;17.45;;;5.32;;
51792;SDS011;37850;53.178;6.376;2022-10-31T15:21:56;15.02;;;5.13;;
51792;SDS011;37850;53.178;6.376;2022-10-31T15:24:23;14.07;;;5.15;;
51792;SDS011;37850;53.178;6.376;2022-10-31T15:26:53;13.27;;;5.27;;
51792;SDS011;37850;53.178;6.376;2022-10-31T15:29:24;13.35;;;4.90;;
51792;SDS011;37850;53.178;6.376;2022-10-31T15:31:52;17.63;;;6.53;;
51792;SDS011;37850;53.178;6.376;2022-10-31T15:34:20;14.25;;;5.38;;
51792;SDS011;37850;53.178;6.376;2022-10-31T15:36:50;13.82;;;5.30;;
51792;SDS011;37850;53.178;6.376;2022-10-31T15:39:16;13.90;;;5.85;;
51792;SDS011;37850;53.178;6.376;2022-10-31T15:41:55;15.35;;;5.47;;
51792;SDS011;37850;53.178;6.376;2022-10-31T15:44:26;12.13;;;5.82;;
51792;SDS011;37850;53.178;6.376;2022-10-31T15:47:00;12.82;;;5.55;;
51792;SDS011;37850;53.178;6.376;2022-10-31T15:49:36;17.00;;;6.80;;
51792;SDS011;37850;53.178;6.376;2022-10-31T15:54:44;17.95;;;6.32;;
51792;SDS011;37850;53.178;6.376;2022-10-31T15:57:12;15.70;;;6.72;;
51792;SDS011;37850;53.178;6.376;2022-10-31T15:59:39;14.48;;;7.15;;
51792;SDS011;37850;53.178;6.376;2022-10-31T16:02:11;13.98;;;6.50;;
51792;SDS011;37850;53.178;6.376;2022-10-31T16:05:00;17.25;;;7.50;;
51792;SDS011;37850;53.178;6.376;2022-10-31T16:07:26;17.98;;;6.53;;
51792;SDS011;37850;53.178;6.376;2022-10-31T16:09:57;17.90;;;7.38;;
51792;SDS011;37850;53.178;6.376;2022-10-31T16:12:41;18.00;;;6.63;;
51792;SDS011;37850;53.178;6.376;2022-10-31T16:15:13;15.43;;;6.63;;
51792;SDS011;37850;53.178;6.376;2022-10-31T16:17:42;20.48;;;7.15;;
51792;SDS011;37850;53.178;6.376;2022-10-31T16:20:20;17.42;;;7.40;;
51792;SDS011;37850;53.178;6.376;2022-10-31T16:22:50;13.38;;;6.50;;
51792;SDS011;37850;53.178;6.376;2022-10-31T16:25:28;20.17;;;6.85;;
51792;SDS011;37850;53.178;6.376;2022-10-31T16:28:05;24.08;;;7.78;;
51792;SDS011;37850;53.178;6.376;2022-10-31T16:30:42;15.13;;;6.72;;
51792;SDS011;37850;53.178;6.376;2022-10-31T16:33:20;18.10;;;6.88;;
51792;SDS011;37850;53.178;6.376;2022-10-31T16:35:46;13.43;;;5.90;;
51792;SDS011;37850;53.178;6.376;2022-10-31T16:38:13;14.60;;;6.45;;
51792;SDS011;37850;53.178;6.376;2022-10-31T16:40:39;15.27;;;6.10;;
51792;SDS011;37850;53.178;6.376;2022-10-31T16:43:07;15.10;;;6.22;;
51792;SDS011;37850;53.178;6.376;2022-10-31T16:45:42;12.57;;;5.30;;
51792;SDS011;37850;53.178;6.376;2022-10-31T16:48:12;12.85;;;5.80;;
51792;SDS011;37850;53.178;6.376;2022-10-31T16:50:40;12.05;;;6.60;;
51792;SDS011;37850;53.178;6.376;2022-10-31T16:53:08;12.57;;;6.20;;
51792;SDS011;37850;53.178;6.376;2022-10-31T16:55:34;14.13;;;6.07;;
51792;SDS011;37850;53.178;6.376;2022-10-31T16:58:12;17.00;;;6.32;;
51792;SDS011;37850;53.178;6.376;2022-10-31T17:03:07;13.27;;;5.90;;
51792;SDS011;37850;53.178;6.376;2022-10-31T17:05:33;12.20;;;5.45;;
51792;SDS011;37850;53.178;6.376;2022-10-31T17:07:59;13.23;;;6.38;;
51792;SDS011;37850;53.178;6.376;2022-10-31T17:10:25;15.45;;;6.75;;
51792;SDS011;37850;53.178;6.376;2022-10-31T17:12:52;19.55;;;7.28;;